sensor_id;sensor_type;location;lat;lon;timestamp;pressure;altitude;pressure_sealevel;temperature;humidity
29535;BME280;72082;52.650;8.116;2023-11-22T00:00:18;102551.31;;;4.08;100.00
29535;BME280;72082;52.650;8.116;2023-11-22T00:02:43;102555.44;;;4.06;100.00
29535;BME280;72082;52.650;8.116;2023-11-22T00:05:08;102562.81;;;4.01;100.00
29535;BME280;72082;52.650;8.116;2023-11-22T00:07:33;102559.25;;;3.98;100.00
29535;BME280;72082;52.650;8.116;2023-11-22T00:09:59;102566.63;;;3.93;100.00
29535;BME280;72082;52.650;8.116;2023-11-22T00:12:24;102568.88;;;3.89;100.00
29535;BME280;72082;52.650;8.116;2023-11-22T00:14:50;102572.06;;;3.85;100.00
29535;BME280;72082;52.650;8.116;2023-11-22T00:17:16;102573.47;;;3.80;100.00
29535;BME280;72082;52.650;8.116;2023-11-22T00:19:41;102589.41;;;3.77;100.00
29535;BME280;72082;52.650;8.116;2023-11-22T00:22:06;102596.06;;;3.75;100.00
29535;BME280;72082;52.650;8.116;2023-11-22T00:24:31;102589.94;;;3.71;100.00
29535;BME280;72082;52.650;8.116;2023-11-22T00:26:56;102593.97;;;3.68;100.00
29535;BME280;72082;52.650;8.116;2023-11-22T00:29:22;102595.47;;;3.64;100.00
29535;BME280;72082;52.650;8.116;2023-11-22T00:31:47;102592.66;;;3.60;100.00
29535;BME280;72082;52.650;8.116;2023-11-22T00:34:12;102583.88;;;3.53;100.00
29535;BME280;72082;52.650;8.116;2023-11-22T00:36:37;102587.03;;;3.49;100.00
29535;BME280;72082;52.650;8.116;2023-11-22T00:39:02;102590.19;;;3.45;100.00
29535;BME280;72082;52.650;8.116;2023-11-22T00:41:31;102593.41;;;3.43;100.00
29535;BME280;72082;52.650;8.116;2023-11-22T00:43:57;102599.91;;;3.38;100.00
29535;BME280;72082;52.650;8.116;2023-11-22T00:46:22;102609.84;;;3.35;100.00
29535;BME280;72082;52.650;8.116;2023-11-22T00:48:47;102607.94;;;3.31;100.00
29535;BME280;72082;52.650;8.116;2023-11-22T00:51:12;102606.91;;;3.27;100.00
29535;BME280;72082;52.650;8.116;2023-11-22T00:53:37;102609.25;;;3.24;100.00
29535;BME280;72082;52.650;8.116;2023-11-22T00:56:04;102611.59;;;3.21;100.00
29535;BME280;72082;52.650;8.116;2023-11-22T00:58:30;102609.78;;;3.19;100.00
29535;BME280;72082;52.650;8.116;2023-11-22T01:00:55;102615.53;;;3.16;100.00
29535;BME280;72082;52.650;8.116;2023-11-22T01:03:20;102610.28;;;3.13;100.00
29535;BME280;72082;52.650;8.116;2023-11-22T01:05:45;102611.81;;;3.09;100.00
29535;BME280;72082;52.650;8.116;2023-11-22T01:08:11;102620.09;;;3.07;100.00
29535;BME280;72082;52.650;8.116;2023-11-22T01:10:36;102616.63;;;3.05;100.00
29535;BME280;72082;52.650;8.116;2023-11-22T01:13:01;102624.22;;;3.05;100.00
29535;BME280;72082;52.650;8.116;2023-11-22T01:15:26;102625.75;;;3.03;100.00
29535;BME280;72082;52.650;8.116;2023-11-22T01:17:53;102618.16;;;3.03;100.00
29535;BME280;72082;52.650;8.116;2023-11-22T01:20:18;102614.66;;;3.01;100.00
29535;BME280;72082;52.650;8.116;2023-11-22T01:22:43;102605.31;;;3.00;100.00
29535;BME280;72082;52.650;8.116;2023-11-22T01:25:08;102606.00;;;2.97;100.00
29535;BME280;72082;52.650;8.116;2023-11-22T01:27:34;102610.22;;;2.97;100.00
29535;BME280;72082;52.650;8.116;2023-11-22T01:29:59;102619.47;;;2.96;100.00
29535;BME280;72082;52.650;8.116;2023-11-22T01:32:24;102623.59;;;2.94;100.00
29535;BME280;72082;52.650;8.116;2023-11-22T01:34:49;102622.53;;;2.91;100.00
29535;BME280;72082;52.650;8.116;2023-11-22T01:37:15;102618.16;;;2.88;100.00
29535;BME280;72082;52.650;8.116;2023-11-22T01:39:40;102628.09;;;2.85;100.00
29535;BME280;72082;52.650;8.116;2023-11-22T01:42:05;102631.34;;;2.83;100.00
29535;BME280;72082;52.650;8.116;2023-11-22T01:44:31;102632.78;;;2.79;100.00
29535;BME280;72082;52.650;8.116;2023-11-22T01:46:56;102630.97;;;2.77;100.00
29535;BME280;72082;52.650;8.116;2023-11-22T01:49:22;102633.50;;;2.77;100.00
29535;BME280;72082;52.650;8.116;2023-11-22T01:51:47;102637.59;;;2.75;100.00
29535;BME280;72082;52.650;8.116;2023-11-22T01:54:13;102641.00;;;2.75;100.00
29535;BME280;72082;52.650;8.116;2023-11-22T01:56:39;102644.44;;;2.76;100.00
29535;BME280;72082;52.650;8.116;2023-11-22T01:59:04;102646.94;;;2.76;100.00
29535;BME280;72082;52.650;8.116;2023-11-22T02:01:30;102653.75;;;2.77;100.00
29535;BME280;72082;52.650;8.116;2023-11-22T02:03:55;102655.44;;;2.76;100.00
29535;BME280;72082;52.650;8.116;2023-11-22T02:06:21;102662.22;;;2.77;100.00
29535;BME280;72082;52.650;8.116;2023-11-22T02:08:46;102664.75;;;2.77;100.00
29535;BME280;72082;52.650;8.116;2023-11-22T02:11:12;102659.69;;;2.77;100.00
29535;BME280;72082;52.650;8.116;2023-11-22T02:13:37;102665.63;;;2.78;100.00
29535;BME280;72082;52.650;8.116;2023-11-22T02:16:03;102670.75;;;2.79;100.00
29535;BME280;72082;52.650;8.116;2023-11-22T02:18:29;102669.13;;;2.80;100.00
29535;BME280;72082;52.650;8.116;2023-11-22T02:20:54;102672.44;;;2.79;100.00
29535;BME280;72082;52.650;8.116;2023-11-22T02:23:20;102673.22;;;2.78;100.00
29535;BME280;72082;52.650;8.116;2023-11-22T02:25:45;102670.50;;;2.75;100.00
29535;BME280;72082;52.650;8.116;2023-11-22T02:28:11;102663.72;;;2.74;100.00
29535;BME280;72082;52.650;8.116;2023-11-22T02:30:36;102655.13;;;2.72;100.00
29535;BME280;72082;52.650;8.116;2023-11-22T02:33:01;102665.25;;;2.72;100.00
29535;BME280;72082;52.650;8.116;2023-11-22T02:35:26;102660.00;;;2.69;100.00
29535;BME280;72082;52.650;8.116;2023-11-22T02:37:52;102661.41;;;2.64;100.00
29535;BME280;72082;52.650;8.116;2023-11-22T02:40:21;102664.63;;;2.61;100.00
29535;BME280;72082;52.650;8.116;2023-11-22T02:42:47;102667.06;;;2.60;100.00
29535;BME280;72082;52.650;8.116;2023-11-22T02:45:17;102670.47;;;2.60;100.00
29535;BME280;72082;52.650;8.116;2023-11-22T02:47:43;102673.88;;;2.61;100.00
29535;BME280;72082;52.650;8.116;2023-11-22T02:50:08;102678.06;;;2.60;100.00
29535;BME280;72082;52.650;8.116;2023-11-22T02:52:34;102674.59;;;2.58;100.00
29535;BME280;72082;52.650;8.116;2023-11-22T02:54:59;102677.09;;;2.58;100.00
29535;BME280;72082;52.650;8.116;2023-11-22T02:57:25;102669.41;;;2.57;100.00
29535;BME280;72082;52.650;8.116;2023-11-22T02:59:50;102670.09;;;2.54;100.00
29535;BME280;72082;52.650;8.116;2023-11-22T03:02:15;102665.66;;;2.50;100.00
29535;BME280;72082;52.650;8.116;2023-11-22T03:04:40;102671.28;;;2.46;100.00
29535;BME280;72082;52.650;8.116;2023-11-22T03:07:05;102663.44;;;2.41;100.00
29535;BME280;72082;52.650;8.116;2023-11-22T03:09:31;102673.28;;;2.37;100.00
29535;BME280;72082;52.650;8.116;2023-11-22T03:11:56;102668.78;;;2.33;100.00
29535;BME280;72082;52.650;8.116;2023-11-22T03:14:21;102677.06;;;2.30;100.00
29535;BME280;72082;52.650;8.116;2023-11-22T03:16:46;102683.59;;;2.27;100.00
29535;BME280;72082;52.650;8.116;2023-11-22T03:19:11;102682.56;;;2.23;100.00
29535;BME280;72082;52.650;8.116;2023-11-22T03:21:37;102679.06;;;2.21;100.00
29535;BME280;72082;52.650;8.116;2023-11-22T03:24:02;102680.59;;;2.19;100.00
29535;BME280;72082;52.650;8.116;2023-11-22T03:26:27;102690.63;;;2.18;100.00
29535;BME280;72082;52.650;8.116;2023-11-22T03:28:53;102691.31;;;2.15;100.00
29535;BME280;72082;52.650;8.116;2023-11-22T03:31:18;102702.19;;;2.14;100.00
29535;BME280;72082;52.650;8.116;2023-11-22T03:33:43;102697.94;;;2.13;100.00
29535;BME280;72082;52.650;8.116;2023-11-22T03:36:08;102705.31;;;2.10;100.00
29535;BME280;72082;52.650;8.116;2023-11-22T03:38:33;102716.13;;;2.08;100.00
29535;BME280;72082;52.650;8.116;2023-11-22T03:40:59;102713.41;;;2.05;100.00
29535;BME280;72082;52.650;8.116;2023-11-22T03:43:24;102712.44;;;2.03;100.00
29535;BME280;72082;52.650;8.116;2023-11-22T03:45:49;102729.94;;;2.00;100.00
29535;BME280;72082;52.650;8.116;2023-11-22T03:48:14;102723.91;;;1.98;100.00
29535;BME280;72082;52.650;8.116;2023-11-22T03:50:39;102730.63;;;1.97;100.00
29535;BME280;72082;52.650;8.116;2023-11-22T03:53:05;102727.88;;;1.94;100.00
29535;BME280;72082;52.650;8.116;2023-11-22T03:55:30;102744.63;;;1.92;100.00
29535;BME280;72082;52.650;8.116;2023-11-22T03:57:55;102739.38;;;1.89;100.00
29535;BME280;72082;52.650;8.116;2023-11-22T04:00:20;102740.03;;;1.86;100.00
29535;BME280;72082;52.650;8.116;2023-11-22T04:02:46;102742.50;;;1.85;100.00
29535;BME280;72082;52.650;8.116;2023-11-22T04:05:11;102738.97;;;1.83;100.00
29535;BME280;72082;52.650;8.116;2023-11-22T04:07:36;102734.69;;;1.82;100.00
29535;BME280;72082;52.650;8.116;2023-11-22T04:10:01;102725.34;;;1.81;100.00
29535;BME280;72082;52.650;8.116;2023-11-22T04:12:27;102731.97;;;1.79;100.00
29535;BME280;72082;52.650;8.116;2023-11-22T04:14:52;102722.53;;;1.76;100.00
29535;BME280;72082;52.650;8.116;2023-11-22T04:17:17;102718.16;;;1.74;100.00
29535;BME280;72082;52.650;8.116;2023-11-22T04:19:42;102706.09;;;1.70;100.00
29535;BME280;72082;52.650;8.116;2023-11-22T04:22:07;102700.09;;;1.68;100.00
29535;BME280;72082;52.650;8.116;2023-11-22T04:24:33;102700.00;;;1.66;100.00
29535;BME280;72082;52.650;8.116;2023-11-22T04:26:58;102695.50;;;1.62;100.00
29535;BME280;72082;52.650;8.116;2023-11-22T04:29:23;102692.91;;;1.61;100.00
29535;BME280;72082;52.650;8.116;2023-11-22T04:31:48;102701.16;;;1.58;100.00
29535;BME280;72082;52.650;8.116;2023-11-22T04:34:13;102706.75;;;1.54;100.00
29535;BME280;72082;52.650;8.116;2023-11-22T04:36:39;102710.97;;;1.54;100.00
29535;BME280;72082;52.650;8.116;2023-11-22T04:39:04;102709.28;;;1.54;100.00
29535;BME280;72082;52.650;8.116;2023-11-22T04:41:29;102720.28;;;1.55;100.00
29535;BME280;72082;52.650;8.116;2023-11-22T04:43:55;102726.13;;;1.54;100.00
29535;BME280;72082;52.650;8.116;2023-11-22T04:46:20;102730.38;;;1.55;100.00
29535;BME280;72082;52.650;8.116;2023-11-22T04:48:45;102727.09;;;1.56;100.00
29535;BME280;72082;52.650;8.116;2023-11-22T04:51:10;102730.50;;;1.56;100.00
29535;BME280;72082;52.650;8.116;2023-11-22T04:53:36;102738.09;;;1.56;100.00
29535;BME280;72082;52.650;8.116;2023-11-22T04:56:01;102743.97;;;1.57;100.00
29535;BME280;72082;52.650;8.116;2023-11-22T04:58:26;102745.75;;;1.58;100.00
29535;BME280;72082;52.650;8.116;2023-11-22T05:00:51;102750.81;;;1.58;100.00
29535;BME280;72082;52.650;8.116;2023-11-22T05:03:17;102755.94;;;1.59;100.00
29535;BME280;72082;52.650;8.116;2023-11-22T05:05:42;102763.44;;;1.58;100.00
29535;BME280;72082;52.650;8.116;2023-11-22T05:08:07;102768.47;;;1.58;100.00
29535;BME280;72082;52.650;8.116;2023-11-22T05:10:32;102768.47;;;1.58;100.00
29535;BME280;72082;52.650;8.116;2023-11-22T05:12:57;102774.22;;;1.55;100.00
29535;BME280;72082;52.650;8.116;2023-11-22T05:15:23;102775.84;;;1.55;100.00
29535;BME280;72082;52.650;8.116;2023-11-22T05:17:48;102769.06;;;1.54;100.00
29535;BME280;72082;52.650;8.116;2023-11-22T05:20:13;102765.53;;;1.52;100.00
29535;BME280;72082;52.650;8.116;2023-11-22T05:22:38;102763.69;;;1.49;100.00
29535;BME280;72082;52.650;8.116;2023-11-22T05:25:04;102758.63;;;1.49;100.00
29535;BME280;72082;52.650;8.116;2023-11-22T05:27:29;102764.38;;;1.47;100.00
29535;BME280;72082;52.650;8.116;2023-11-22T05:29:54;102770.31;;;1.47;100.00
29535;BME280;72082;52.650;8.116;2023-11-22T05:32:20;102757.47;;;1.44;100.00
29535;BME280;72082;52.650;8.116;2023-11-22T05:34:45;102758.06;;;1.40;100.00
29535;BME280;72082;52.650;8.116;2023-11-22T05:37:11;102754.44;;;1.37;100.00
29535;BME280;72082;52.650;8.116;2023-11-22T05:39:37;102751.69;;;1.34;100.00
29535;BME280;72082;52.650;8.116;2023-11-22T05:42:02;102748.88;;;1.29;100.00
29535;BME280;72082;52.650;8.116;2023-11-22T05:44:27;102748.78;;;1.28;100.00
29535;BME280;72082;52.650;8.116;2023-11-22T05:46:52;102741.78;;;1.23;100.00
29535;BME280;72082;52.650;8.116;2023-11-22T05:49:17;102750.91;;;1.21;100.00
29535;BME280;72082;52.650;8.116;2023-11-22T05:51:43;102744.00;;;1.19;100.00
29535;BME280;72082;52.650;8.116;2023-11-22T05:54:09;102745.66;;;1.18;100.00
29535;BME280;72082;52.650;8.116;2023-11-22T05:56:34;102767.47;;;1.18;100.00
29535;BME280;72082;52.650;8.116;2023-11-22T05:58:59;102759.81;;;1.16;100.00
29535;BME280;72082;52.650;8.116;2023-11-22T06:01:24;102767.28;;;1.15;100.00
29535;BME280;72082;52.650;8.116;2023-11-22T06:03:50;102776.63;;;1.16;100.00
29535;BME280;72082;52.650;8.116;2023-11-22T06:06:15;102777.38;;;1.15;100.00
29535;BME280;72082;52.650;8.116;2023-11-22T06:08:40;102780.91;;;1.17;100.00
29535;BME280;72082;52.650;8.116;2023-11-22T06:11:06;102778.25;;;1.15;100.00
29535;BME280;72082;52.650;8.116;2023-11-22T06:13:31;102787.59;;;1.16;100.00
29535;BME280;72082;52.650;8.116;2023-11-22T06:15:56;102790.00;;;1.15;100.00
29535;BME280;72082;52.650;8.116;2023-11-22T06:18:21;102791.66;;;1.14;100.00
29535;BME280;72082;52.650;8.116;2023-11-22T06:20:46;102779.81;;;1.13;100.00
29535;BME280;72082;52.650;8.116;2023-11-22T06:23:12;102788.13;;;1.12;100.00
29535;BME280;72082;52.650;8.116;2023-11-22T06:25:37;102786.41;;;1.11;100.00
29535;BME280;72082;52.650;8.116;2023-11-22T06:28:03;102781.34;;;1.11;100.00
29535;BME280;72082;52.650;8.116;2023-11-22T06:30:28;102776.97;;;1.09;100.00
29535;BME280;72082;52.650;8.116;2023-11-22T06:32:54;102781.16;;;1.08;100.00
29535;BME280;72082;52.650;8.116;2023-11-22T06:35:19;102776.09;;;1.08;100.00
29535;BME280;72082;52.650;8.116;2023-11-22T06:37:44;102780.38;;;1.09;100.00
29535;BME280;72082;52.650;8.116;2023-11-22T06:40:11;102774.53;;;1.10;100.00
29535;BME280;72082;52.650;8.116;2023-11-22T06:42:36;102766.22;;;1.11;100.00
29535;BME280;72082;52.650;8.116;2023-11-22T06:45:01;102776.31;;;1.11;100.00
29535;BME280;72082;52.650;8.116;2023-11-22T06:47:27;102772.16;;;1.12;100.00
29535;BME280;72082;52.650;8.116;2023-11-22T06:49:52;102774.00;;;1.14;100.00
29535;BME280;72082;52.650;8.116;2023-11-22T06:52:18;102778.25;;;1.15;100.00
29535;BME280;72082;52.650;8.116;2023-11-22T06:54:43;102779.34;;;1.19;100.00
29535;BME280;72082;52.650;8.116;2023-11-22T06:57:08;102787.00;;;1.20;100.00
29535;BME280;72082;52.650;8.116;2023-11-22T06:59:33;102797.31;;;1.23;100.00
29535;BME280;72082;52.650;8.116;2023-11-22T07:01:58;102800.81;;;1.25;100.00
29535;BME280;72082;52.650;8.116;2023-11-22T07:04:24;102813.78;;;1.30;100.00
29535;BME280;72082;52.650;8.116;2023-11-22T07:06:49;102818.16;;;1.33;100.00
29535;BME280;72082;52.650;8.116;2023-11-22T07:09:15;102818.53;;;1.39;100.00
29535;BME280;72082;52.650;8.116;2023-11-22T07:11:40;102809.44;;;1.41;100.00
29535;BME280;72082;52.650;8.116;2023-11-22T07:14:05;102796.16;;;1.43;100.00
29535;BME280;72082;52.650;8.116;2023-11-22T07:16:32;102788.44;;;1.42;100.00
29535;BME280;72082;52.650;8.116;2023-11-22T07:18:57;102790.88;;;1.40;100.00
29535;BME280;72082;52.650;8.116;2023-11-22T07:21:22;102801.00;;;1.40;100.00
29535;BME280;72082;52.650;8.116;2023-11-22T07:23:48;102801.88;;;1.41;100.00
29535;BME280;72082;52.650;8.116;2023-11-22T07:26:13;102797.66;;;1.41;100.00
29535;BME280;72082;52.650;8.116;2023-11-22T07:28:38;102797.88;;;1.44;100.00
29535;BME280;72082;52.650;8.116;2023-11-22T07:31:07;102807.31;;;1.47;100.00
29535;BME280;72082;52.650;8.116;2023-11-22T07:33:32;102815.97;;;1.50;100.00
29535;BME280;72082;52.650;8.116;2023-11-22T07:35:57;102797.81;;;1.56;100.00
29535;BME280;72082;52.650;8.116;2023-11-22T07:38:22;102796.34;;;1.59;100.00
29535;BME280;72082;52.650;8.116;2023-11-22T07:40:47;102783.06;;;1.62;100.00
29535;BME280;72082;52.650;8.116;2023-11-22T07:43:13;102768.78;;;1.62;100.00
29535;BME280;72082;52.650;8.116;2023-11-22T07:45:38;102762.84;;;1.62;100.00
29535;BME280;72082;52.650;8.116;2023-11-22T07:48:06;102756.94;;;1.61;100.00
29535;BME280;72082;52.650;8.116;2023-11-22T07:50:31;102767.13;;;1.63;100.00
29535;BME280;72082;52.650;8.116;2023-11-22T07:52:56;102761.47;;;1.67;100.00
29535;BME280;72082;52.650;8.116;2023-11-22T07:55:21;102762.50;;;1.69;100.00
29535;BME280;72082;52.650;8.116;2023-11-22T07:57:48;102759.28;;;1.71;100.00
29535;BME280;72082;52.650;8.116;2023-11-22T08:00:14;102761.69;;;1.70;100.00
29535;BME280;72082;52.650;8.116;2023-11-22T08:02:39;102773.56;;;1.71;100.00
29535;BME280;72082;52.650;8.116;2023-11-22T08:05:05;102778.81;;;1.74;100.00
29535;BME280;72082;52.650;8.116;2023-11-22T08:07:30;102788.34;;;1.78;100.00
29535;BME280;72082;52.650;8.116;2023-11-22T08:09:55;102786.97;;;1.83;100.00
29535;BME280;72082;52.650;8.116;2023-11-22T08:12:21;102801.78;;;1.90;100.00
29535;BME280;72082;52.650;8.116;2023-11-22T08:14:46;102797.91;;;1.95;100.00
29535;BME280;72082;52.650;8.116;2023-11-22T08:17:11;102803.25;;;2.00;100.00
29535;BME280;72082;52.650;8.116;2023-11-22T08:19:36;102810.22;;;2.04;100.00
29535;BME280;72082;52.650;8.116;2023-11-22T08:22:01;102799.66;;;2.09;100.00
29535;BME280;72082;52.650;8.116;2023-11-22T08:24:27;102801.59;;;2.13;100.00
29535;BME280;72082;52.650;8.116;2023-11-22T08:26:52;102803.53;;;2.17;100.00
29535;BME280;72082;52.650;8.116;2023-11-22T08:29:17;102803.16;;;2.24;100.00
29535;BME280;72082;52.650;8.116;2023-11-22T08:31:42;102824.56;;;2.29;100.00
29535;BME280;72082;52.650;8.116;2023-11-22T08:34:07;102836.69;;;2.35;100.00
29535;BME280;72082;52.650;8.116;2023-11-22T08:36:33;102830.13;;;2.37;100.00
29535;BME280;72082;52.650;8.116;2023-11-22T08:38:58;102837.88;;;2.40;100.00
29535;BME280;72082;52.650;8.116;2023-11-22T08:41:23;102828.75;;;2.42;100.00
29535;BME280;72082;52.650;8.116;2023-11-22T08:43:49;102821.25;;;2.43;100.00
29535;BME280;72082;52.650;8.116;2023-11-22T08:46:14;102805.88;;;2.40;100.00
29535;BME280;72082;52.650;8.116;2023-11-22T08:48:39;102805.88;;;2.40;100.00
29535;BME280;72082;52.650;8.116;2023-11-22T08:51:04;102822.69;;;2.40;100.00
29535;BME280;72082;52.650;8.116;2023-11-22T08:53:30;102822.81;;;2.41;100.00
29535;BME280;72082;52.650;8.116;2023-11-22T08:55:55;102808.41;;;2.40;100.00
29535;BME280;72082;52.650;8.116;2023-11-22T08:58:20;102806.66;;;2.39;100.00
29535;BME280;72082;52.650;8.116;2023-11-22T09:00:45;102795.88;;;2.42;100.00
29535;BME280;72082;52.650;8.116;2023-11-22T09:03:11;102796.72;;;2.42;100.00
29535;BME280;72082;52.650;8.116;2023-11-22T09:05:36;102795.94;;;2.43;100.00
29535;BME280;72082;52.650;8.116;2023-11-22T09:08:02;102783.28;;;2.43;100.00
29535;BME280;72082;52.650;8.116;2023-11-22T09:10:27;102799.63;;;2.48;100.00
29535;BME280;72082;52.650;8.116;2023-11-22T09:12:52;102806.72;;;2.54;100.00
29535;BME280;72082;52.650;8.116;2023-11-22T09:15:18;102815.47;;;2.59;100.00
29535;BME280;72082;52.650;8.116;2023-11-22T09:17:43;102811.38;;;2.61;100.00
29535;BME280;72082;52.650;8.116;2023-11-22T09:20:10;102809.84;;;2.63;100.00
29535;BME280;72082;52.650;8.116;2023-11-22T09:22:35;102823.34;;;2.64;100.00
29535;BME280;72082;52.650;8.116;2023-11-22T09:25:00;102815.97;;;2.67;100.00
29535;BME280;72082;52.650;8.116;2023-11-22T09:27:25;102804.38;;;2.70;100.00
29535;BME280;72082;52.650;8.116;2023-11-22T09:29:51;102801.16;;;2.73;100.00
29535;BME280;72082;52.650;8.116;2023-11-22T09:32:16;102812.44;;;2.78;100.00
29535;BME280;72082;52.650;8.116;2023-11-22T09:34:41;102823.72;;;2.83;100.00
29535;BME280;72082;52.650;8.116;2023-11-22T09:37:06;102831.69;;;2.89;100.00
29535;BME280;72082;52.650;8.116;2023-11-22T09:39:31;102832.84;;;2.94;100.00
29535;BME280;72082;52.650;8.116;2023-11-22T09:41:57;102841.69;;;3.00;100.00
29535;BME280;72082;52.650;8.116;2023-11-22T09:44:22;102834.75;;;3.11;100.00
29535;BME280;72082;52.650;8.116;2023-11-22T09:46:51;102826.84;;;3.20;100.00
29535;BME280;72082;52.650;8.116;2023-11-22T09:49:20;102811.72;;;3.21;100.00
29535;BME280;72082;52.650;8.116;2023-11-22T09:51:50;102811.00;;;3.24;100.00
29535;BME280;72082;52.650;8.116;2023-11-22T09:54:17;102815.25;;;3.23;100.00
29535;BME280;72082;52.650;8.116;2023-11-22T09:56:44;102813.66;;;3.25;100.00
29535;BME280;72082;52.650;8.116;2023-11-22T09:59:12;102810.31;;;3.26;100.00
29535;BME280;72082;52.650;8.116;2023-11-22T10:01:38;102814.00;;;3.31;100.00
29535;BME280;72082;52.650;8.116;2023-11-22T10:04:03;102815.34;;;3.39;100.00
29535;BME280;72082;52.650;8.116;2023-11-22T10:06:29;102807.41;;;3.48;100.00
29535;BME280;72082;52.650;8.116;2023-11-22T10:08:54;102814.50;;;3.53;100.00
29535;BME280;72082;52.650;8.116;2023-11-22T10:11:19;102810.38;;;3.55;100.00
29535;BME280;72082;52.650;8.116;2023-11-22T10:13:49;102802.97;;;3.58;100.00
29535;BME280;72082;52.650;8.116;2023-11-22T10:16:14;102802.34;;;3.62;100.00
29535;BME280;72082;52.650;8.116;2023-11-22T10:18:41;102803.66;;;3.70;100.00
29535;BME280;72082;52.650;8.116;2023-11-22T10:21:18;102808.31;;;3.78;100.00
29535;BME280;72082;52.650;8.116;2023-11-22T10:23:43;102794.25;;;3.83;100.00
29535;BME280;72082;52.650;8.116;2023-11-22T10:26:09;102790.31;;;3.88;100.00
29535;BME280;72082;52.650;8.116;2023-11-22T10:28:34;102795.69;;;3.94;100.00
29535;BME280;72082;52.650;8.116;2023-11-22T10:30:59;102792.75;;;4.01;100.00
29535;BME280;72082;52.650;8.116;2023-11-22T10:33:25;102794.75;;;4.06;100.00
29535;BME280;72082;52.650;8.116;2023-11-22T10:35:50;102793.41;;;4.13;100.00
29535;BME280;72082;52.650;8.116;2023-11-22T10:38:17;102780.13;;;4.17;100.00
29535;BME280;72082;52.650;8.116;2023-11-22T10:40:43;102787.88;;;4.20;100.00
29535;BME280;72082;52.650;8.116;2023-11-22T10:43:09;102787.13;;;4.21;100.00
29535;BME280;72082;52.650;8.116;2023-11-22T10:45:34;102782.75;;;4.18;100.00
29535;BME280;72082;52.650;8.116;2023-11-22T10:48:00;102784.41;;;4.18;100.00
29535;BME280;72082;52.650;8.116;2023-11-22T10:50:26;102775.91;;;4.17;100.00
29535;BME280;72082;52.650;8.116;2023-11-22T10:52:52;102776.00;;;4.19;100.00
29535;BME280;72082;52.650;8.116;2023-11-22T10:55:18;102772.66;;;4.20;100.00
29535;BME280;72082;52.650;8.116;2023-11-22T10:57:45;102767.00;;;4.24;100.00
29535;BME280;72082;52.650;8.116;2023-11-22T11:00:11;102775.56;;;4.26;100.00
29535;BME280;72082;52.650;8.116;2023-11-22T11:02:41;102772.25;;;4.27;100.00
29535;BME280;72082;52.650;8.116;2023-11-22T11:05:12;102756.38;;;4.31;100.00
29535;BME280;72082;52.650;8.116;2023-11-22T11:07:40;102757.44;;;4.34;100.00
29535;BME280;72082;52.650;8.116;2023-11-22T11:10:11;102762.91;;;4.42;100.00
29535;BME280;72082;52.650;8.116;2023-11-22T11:12:36;102766.91;;;4.53;100.00
29535;BME280;72082;52.650;8.116;2023-11-22T11:15:02;102749.38;;;4.58;100.00
29535;BME280;72082;52.650;8.116;2023-11-22T11:17:28;102746.19;;;4.62;100.00
29535;BME280;72082;52.650;8.116;2023-11-22T11:19:53;102734.56;;;4.65;100.00
29535;BME280;72082;52.650;8.116;2023-11-22T11:22:18;102718.66;;;4.69;100.00
29535;BME280;72082;52.650;8.116;2023-11-22T11:24:47;102710.44;;;4.73;100.00
29535;BME280;72082;52.650;8.116;2023-11-22T11:27:12;102694.53;;;4.77;100.00
29535;BME280;72082;52.650;8.116;2023-11-22T11:29:38;102688.84;;;4.81;100.00
29535;BME280;72082;52.650;8.116;2023-11-22T11:32:03;102676.69;;;4.92;100.00
29535;BME280;72082;52.650;8.116;2023-11-22T11:34:28;102653.72;;;5.07;100.00
29535;BME280;72082;52.650;8.116;2023-11-22T11:36:54;102643.09;;;5.31;100.00
29535;BME280;72082;52.650;8.116;2023-11-22T11:39:25;102633.88;;;5.51;100.00
29535;BME280;72082;52.650;8.116;2023-11-22T11:41:50;102633.28;;;5.74;100.00
29535;BME280;72082;52.650;8.116;2023-11-22T11:44:17;102608.78;;;6.11;100.00
29535;BME280;72082;52.650;8.116;2023-11-22T11:46:43;102595.91;;;6.66;100.00
29535;BME280;72082;52.650;8.116;2023-11-22T11:49:12;102591.59;;;7.05;100.00
29535;BME280;72082;52.650;8.116;2023-11-22T11:51:37;102583.56;;;7.37;100.00
29535;BME280;72082;52.650;8.116;2023-11-22T11:54:03;102577.66;;;7.60;100.00
29535;BME280;72082;52.650;8.116;2023-11-22T11:56:28;102583.50;;;7.80;100.00
29535;BME280;72082;52.650;8.116;2023-11-22T11:58:56;102575.56;;;7.94;100.00
29535;BME280;72082;52.650;8.116;2023-11-22T12:01:21;102573.03;;;8.18;100.00
29535;BME280;72082;52.650;8.116;2023-11-22T12:03:47;102559.16;;;8.34;100.00
29535;BME280;72082;52.650;8.116;2023-11-22T12:06:16;102555.59;;;8.79;100.00
29535;BME280;72082;52.650;8.116;2023-11-22T12:08:41;102544.88;;;9.16;100.00
29535;BME280;72082;52.650;8.116;2023-11-22T12:11:06;102522.63;;;9.40;100.00
29535;BME280;72082;52.650;8.116;2023-11-22T12:13:32;102513.66;;;9.54;100.00
29535;BME280;72082;52.650;8.116;2023-11-22T12:15:57;102527.84;;;9.73;100.00
29535;BME280;72082;52.650;8.116;2023-11-22T12:18:23;102530.88;;;9.88;100.00
29535;BME280;72082;52.650;8.116;2023-11-22T12:20:56;102544.44;;;9.85;100.00
29535;BME280;72082;52.650;8.116;2023-11-22T12:23:21;102561.09;;;10.01;100.00
29535;BME280;72082;52.650;8.116;2023-11-22T12:25:47;102555.31;;;10.36;100.00
29535;BME280;72082;52.650;8.116;2023-11-22T12:28:12;102564.25;;;10.85;100.00
29535;BME280;72082;52.650;8.116;2023-11-22T12:30:37;102536.06;;;11.21;100.00
29535;BME280;72082;52.650;8.116;2023-11-22T12:33:07;102523.84;;;11.48;100.00
29535;BME280;72082;52.650;8.116;2023-11-22T12:35:33;102521.41;;;11.54;100.00
29535;BME280;72082;52.650;8.116;2023-11-22T12:38:00;102524.53;;;11.41;100.00
29535;BME280;72082;52.650;8.116;2023-11-22T12:40:30;102531.78;;;11.21;100.00